Time;durP1;ratioP1;P1;durP2;ratioP2;P2;SDS_P1;SDS_P2;PMS_P1;PMS_P2;Temp;Humidity;BMP_temperature;BMP_pressure;BME280_temperature;BME280_humidity;BME280_pressure;Samples;Min_cycle;Max_cycle;Signal;HPM_P1;HPM_P2
2021/05/23 00:01:07;;;;;;;0.43;0.43;;;11.40;99.90;;;;;;5093579;28;20203;-72
2021/05/23 00:03:33;;;;;;;0.20;0.20;;;11.40;99.90;;;;;;5112282;28;20224;-72
2021/05/23 00:06:01;;;;;;;0.43;0.43;;;11.40;99.90;;;;;;5112268;28;20265;-72
2021/05/23 00:08:27;;;;;;;0.88;0.88;;;11.40;99.90;;;;;;5112433;28;20225;-72
2021/05/23 00:11:07;;;;;;;0.05;0.05;;;11.40;99.90;;;;;;5112221;28;20190;-72
2021/05/23 00:13:39;;;;;;;0.17;0.17;;;11.30;99.90;;;;;;5112253;28;20167;-72
2021/05/23 00:16:20;;;;;;;0.10;0.10;;;11.30;99.90;;;;;;5112167;28;20151;-72
2021/05/23 00:18:52;;;;;;;0.80;0.80;;;11.40;99.90;;;;;;5112113;28;20159;-72
2021/05/23 00:21:20;;;;;;;0.25;0.25;;;11.50;99.90;;;;;;5112179;28;20187;-72
2021/05/23 00:23:46;;;;;;;0.20;0.20;;;11.50;99.90;;;;;;5093834;28;20175;-72
2021/05/23 00:26:13;;;;;;;0.20;0.20;;;11.30;99.90;;;;;;5093983;28;20163;-71
2021/05/23 00:28:39;;;;;;;0.35;0.35;;;11.30;99.90;;;;;;5093935;28;20185;-71
2021/05/23 00:31:06;;;;;;;4.43;1.63;;;11.50;99.90;;;;;;5093767;28;20255;-72
2021/05/23 00:33:33;;;;;;;0.68;0.40;;;11.40;99.90;;;;;;5111910;28;20180;-72
2021/05/23 00:35:59;;;;;;;0.00;0.00;;;11.50;99.90;;;;;;5111469;28;20164;-72
2021/05/23 00:38:25;;;;;;;0.25;0.25;;;11.50;99.90;;;;;;5090073;28;20206;-72
2021/05/23 00:40:51;;;;;;;0.38;0.38;;;11.50;99.90;;;;;;5073312;28;20215;-72
2021/05/23 00:43:19;;;;;;;0.20;0.20;;;11.30;99.90;;;;;;5091342;28;20211;-71
2021/05/23 00:45:48;;;;;;;1.25;1.00;;;11.50;99.90;;;;;;5102835;28;20200;-72
2021/05/23 00:48:15;;;;;;;1.85;1.25;;;11.50;99.90;;;;;;5111655;28;20164;-71
2021/05/23 00:50:41;;;;;;;17.35;1.23;;;11.50;99.90;;;;;;5093217;28;20668;-72
2021/05/23 00:53:08;;;;;;;0.30;0.30;;;11.50;99.90;;;;;;5111116;28;20171;-72
2021/05/23 00:55:35;;;;;;;10.90;1.05;;;11.50;99.90;;;;;;5093365;28;20201;-71
2021/05/23 00:58:01;;;;;;;0.50;0.50;;;11.40;99.90;;;;;;5093148;28;20204;-72
2021/05/23 01:00:35;;;;;;;3.22;0.50;;;11.30;99.90;;;;;;5111269;28;20211;-72
2021/05/23 01:03:03;;;;;;;1.67;1.58;;;11.20;99.90;;;;;;5093289;28;20178;-72
2021/05/23 01:05:29;;;;;;;0.52;0.52;;;11.30;99.90;;;;;;5111396;28;20167;-72
2021/05/23 01:07:56;;;;;;;0.28;0.28;;;11.30;99.90;;;;;;5111239;28;20218;-72
2021/05/23 01:10:26;;;;;;;0.10;0.10;;;11.30;99.90;;;;;;5111074;28;20206;-72
2021/05/23 01:12:56;;;;;;;0.20;0.20;;;11.30;99.90;;;;;;5093011;28;20175;-72
2021/05/23 01:15:45;;;;;;;1.05;1.05;;;11.30;99.90;;;;;;5092843;28;20179;-72
2021/05/23 01:18:21;;;;;;;0.40;0.40;;;11.30;99.90;;;;;;5111098;28;20183;-72
2021/05/23 01:20:58;;;;;;;0.43;0.43;;;11.30;99.90;;;;;;5110829;28;20274;-72
2021/05/23 01:23:31;;;;;;;0.95;0.75;;;11.20;99.90;;;;;;5110872;28;20170;-72
2021/05/23 01:26:10;;;;;;;0.32;0.32;;;11.10;99.90;;;;;;5092720;28;20171;-72
2021/05/23 01:28:40;;;;;;;1.00;1.00;;;11.20;99.90;;;;;;5110827;28;20594;-72
2021/05/23 01:31:10;;;;;;;0.40;0.40;;;11.20;99.90;;;;;;5110792;28;20212;-72
2021/05/23 01:33:37;;;;;;;0.22;0.22;;;11.40;99.90;;;;;;5110934;28;20155;-72
2021/05/23 01:36:04;;;;;;;0.52;0.52;;;11.40;99.90;;;;;;5109605;28;20158;-71
2021/05/23 01:38:31;;;;;;;0.10;0.10;;;11.30;99.90;;;;;;5110333;28;20244;-71
2021/05/23 01:41:05;;;;;;;1.05;0.52;;;11.30;99.90;;;;;;5110352;28;20199;-72
2021/05/23 01:43:32;;;;;;;0.52;0.52;;;11.20;99.90;;;;;;5110195;28;20246;-72
2021/05/23 01:45:59;;;;;;;0.85;0.85;;;11.20;99.90;;;;;;5110146;28;20159;-72
2021/05/23 01:48:25;;;;;;;0.30;0.30;;;11.30;99.90;;;;;;5110370;28;20209;-72
2021/05/23 01:50:52;;;;;;;1.05;1.05;;;11.40;99.90;;;;;;5110388;28;20194;-72
2021/05/23 01:53:18;;;;;;;0.85;0.75;;;11.40;99.90;;;;;;5110216;28;20164;-72
2021/05/23 01:55:44;;;;;;;0.75;0.75;;;11.40;99.90;;;;;;5110377;28;20175;-72
2021/05/23 01:58:10;;;;;;;0.40;0.40;;;11.50;99.90;;;;;;5110317;28;20156;-72
2021/05/23 02:00:36;;;;;;;0.40;0.40;;;11.40;99.90;;;;;;5110120;28;20633;-72
2021/05/23 02:03:08;;;;;;;1.75;1.20;;;11.40;99.90;;;;;;5092051;28;20163;-72
2021/05/23 02:05:36;;;;;;;0.22;0.22;;;11.30;99.90;;;;;;5109415;28;20178;-72
2021/05/23 02:08:04;;;;;;;1.88;1.25;;;11.20;99.90;;;;;;5110099;28;20163;-72
2021/05/23 02:10:30;;;;;;;0.15;0.15;;;11.20;99.90;;;;;;5109560;28;20262;-72
2021/05/23 02:13:00;;;;;;;1.00;0.60;;;11.20;99.90;;;;;;5109809;28;20156;-72
2021/05/23 02:15:26;;;;;;;2.30;2.10;;;11.10;99.90;;;;;;5109372;28;20171;-71
2021/05/23 02:17:52;;;;;;;0.63;0.63;;;11.00;99.90;;;;;;5109999;28;20156;-72
2021/05/23 02:20:22;;;;;;;0.52;0.52;;;11.00;99.90;;;;;;5109367;28;20207;-72
2021/05/23 02:22:49;;;;;;;0.50;0.50;;;11.10;99.90;;;;;;5109830;28;20164;-72
2021/05/23 02:25:20;;;;;;;1.55;0.32;;;11.10;99.90;;;;;;5109886;28;20155;-72
2021/05/23 02:27:49;;;;;;;0.30;0.30;;;11.00;99.90;;;;;;5109818;28;20180;-72
2021/05/23 02:30:27;;;;;;;3.53;0.95;;;10.90;99.90;;;;;;5109200;28;20201;-72
2021/05/23 02:32:54;;;;;;;0.25;0.25;;;11.00;99.90;;;;;;5109615;28;20171;-72
2021/05/23 02:35:22;;;;;;;0.73;0.73;;;11.00;99.90;;;;;;5109651;28;20215;-72
2021/05/23 02:37:49;;;;;;;0.52;0.50;;;10.90;99.90;;;;;;5109432;28;20178;-72
2021/05/23 02:40:18;;;;;;;0.10;0.10;;;10.90;99.90;;;;;;5090967;28;20213;-72
2021/05/23 02:42:45;;;;;;;0.65;0.40;;;10.80;99.90;;;;;;5109477;28;20219;-72
2021/05/23 02:45:13;;;;;;;0.90;0.77;;;10.80;99.90;;;;;;5109673;28;20685;-72
2021/05/23 02:47:40;;;;;;;0.65;0.65;;;10.80;99.90;;;;;;5090964;28;20312;-72
2021/05/23 02:50:10;;;;;;;0.32;0.32;;;10.70;99.90;;;;;;5109553;28;20161;-72
2021/05/23 02:52:36;;;;;;;0.88;0.88;;;10.70;99.90;;;;;;5109299;28;20162;-72
2021/05/23 02:55:06;;;;;;;0.35;0.35;;;10.80;99.90;;;;;;5109432;28;20242;-72
2021/05/23 02:57:36;;;;;;;0.32;0.32;;;10.90;99.90;;;;;;5109559;28;20156;-72
2021/05/23 03:00:05;;;;;;;0.15;0.15;;;11.00;99.90;;;;;;5109357;28;20221;-73
2021/05/23 03:02:31;;;;;;;0.32;0.32;;;11.00;99.90;;;;;;5109437;28;20159;-73
2021/05/23 03:04:57;;;;;;;0.10;0.10;;;11.10;99.90;;;;;;5109270;28;20638;-72
2021/05/23 03:07:22;;;;;;;0.17;0.17;;;11.10;99.90;;;;;;5091196;28;20181;-72
2021/05/23 03:09:51;;;;;;;0.85;0.73;;;11.00;99.90;;;;;;5109224;28;20235;-72
2021/05/23 03:12:17;;;;;;;0.30;0.30;;;11.10;99.90;;;;;;5109011;28;20159;-72
2021/05/23 03:14:44;;;;;;;0.20;0.20;;;11.00;99.90;;;;;;5109089;28;20209;-71
2021/05/23 03:17:10;;;;;;;1.20;0.60;;;11.00;99.90;;;;;;5110949;28;20183;-72
2021/05/23 03:19:38;;;;;;;0.57;0.57;;;10.90;99.90;;;;;;5112652;28;20183;-72
2021/05/23 03:22:06;;;;;;;0.70;0.70;;;10.90;99.90;;;;;;5112991;28;20253;-72
2021/05/23 03:24:33;;;;;;;0.82;0.82;;;10.90;99.90;;;;;;5112947;28;20635;-71
2021/05/23 03:27:00;;;;;;;1.05;1.05;;;10.80;99.90;;;;;;5113126;28;20159;-71
2021/05/23 03:29:25;;;;;;;0.20;0.20;;;10.70;99.90;;;;;;5113054;28;20159;-72
2021/05/23 03:31:51;;;;;;;0.20;0.20;;;10.70;99.90;;;;;;5112995;28;20244;-72
2021/05/23 03:34:17;;;;;;;0.20;0.20;;;10.70;99.90;;;;;;5112926;28;20151;-72
2021/05/23 03:36:43;;;;;;;4.85;1.95;;;10.70;99.90;;;;;;5112569;28;20163;-72
2021/05/23 03:39:09;;;;;;;0.10;0.10;;;10.70;99.90;;;;;;5091354;28;20211;-72
2021/05/23 03:41:34;;;;;;;0.20;0.20;;;10.60;99.90;;;;;;5092293;28;20227;-72
2021/05/23 03:44:00;;;;;;;0.22;0.22;;;10.60;99.90;;;;;;5074461;28;20168;-72
2021/05/23 03:46:26;;;;;;;0.20;0.20;;;10.50;99.90;;;;;;5092483;28;20148;-72
2021/05/23 03:48:52;;;;;;;0.10;0.10;;;10.50;99.90;;;;;;5108807;28;20174;-72
2021/05/23 03:51:18;;;;;;;0.28;0.28;;;10.50;99.90;;;;;;5094603;28;20215;-73
2021/05/23 03:53:43;;;;;;;0.88;0.40;;;10.60;99.90;;;;;;5112523;28;20151;-72
2021/05/23 03:56:09;;;;;;;1.65;0.40;;;10.60;99.90;;;;;;5094374;28;20171;-72
2021/05/23 03:58:35;;;;;;;1.05;0.93;;;10.70;99.90;;;;;;5112682;28;20495;-72
2021/05/23 04:01:01;;;;;;;0.47;0.47;;;10.80;99.90;;;;;;5112517;28;20207;-72
2021/05/23 04:03:28;;;;;;;0.75;0.75;;;10.80;99.90;;;;;;5094365;28;20236;-72
2021/05/23 04:05:57;;;;;;;0.40;0.40;;;10.80;99.90;;;;;;5112465;28;20165;-72
2021/05/23 04:08:24;;;;;;;0.40;0.40;;;10.90;99.90;;;;;;5093129;28;20164;-72
2021/05/23 04:11:01;;;;;;;1.90;0.57;;;10.90;99.90;;;;;;5112372;28;20191;-72
2021/05/23 04:13:28;;;;;;;0.20;0.20;;;10.90;99.90;;;;;;5112169;28;20181;-72
2021/05/23 04:15:54;;;;;;;0.10;0.10;;;10.90;99.90;;;;;;5112367;28;20152;-72
2021/05/23 04:18:20;;;;;;;0.10;0.10;;;10.90;99.90;;;;;;5112214;28;20193;-72
2021/05/23 04:20:46;;;;;;;0.20;0.20;;;10.80;99.90;;;;;;5112121;28;20259;-72
2021/05/23 04:23:12;;;;;;;0.63;0.63;;;10.70;99.90;;;;;;5112078;28;20185;-72
2021/05/23 04:25:38;;;;;;;0.20;0.20;;;10.70;99.90;;;;;;5112037;28;20151;-72
2021/05/23 04:28:04;;;;;;;1.20;1.10;;;10.80;99.90;;;;;;5092712;28;20168;-72
2021/05/23 04:30:30;;;;;;;0.20;0.20;;;10.80;99.90;;;;;;5093878;28;20206;-72
2021/05/23 04:32:57;;;;;;;0.40;0.40;;;10.80;99.90;;;;;;5111836;28;20182;-72
2021/05/23 04:35:24;;;;;;;0.50;0.50;;;10.90;99.90;;;;;;5111660;28;20164;-72
2021/05/23 04:37:50;;;;;;;0.63;0.63;;;10.90;99.90;;;;;;5111484;28;20168;-71
2021/05/23 04:40:18;;;;;;;0.10;0.10;;;10.90;99.90;;;;;;5093531;28;20214;-71
2021/05/23 04:42:45;;;;;;;0.47;0.47;;;11.00;99.90;;;;;;5111641;28;20226;-72
2021/05/23 04:45:12;;;;;;;0.93;0.93;;;11.10;99.90;;;;;;5111625;28;20155;-72
2021/05/23 04:47:38;;;;;;;0.20;0.20;;;11.00;99.90;;;;;;5111629;28;20175;-72
2021/05/23 04:50:05;;;;;;;7.13;0.38;;;11.10;99.90;;;;;;5093326;28;20585;-72
2021/05/23 04:52:31;;;;;;;0.20;0.20;;;11.10;99.90;;;;;;5111509;28;20620;-72
2021/05/23 04:54:57;;;;;;;0.20;0.20;;;11.10;99.90;;;;;;5111491;28;20184;-72
2021/05/23 04:57:23;;;;;;;0.45;0.45;;;11.10;99.90;;;;;;5111572;28;20183;-72
2021/05/23 04:59:51;;;;;;;0.43;0.43;;;11.10;99.90;;;;;;5111298;28;20639;-72
2021/05/23 05:02:19;;;;;;;0.10;0.10;;;11.20;99.90;;;;;;5111529;28;20175;-72
2021/05/23 05:04:45;;;;;;;1.55;1.45;;;11.20;99.90;;;;;;5093040;28;20171;-72
2021/05/23 05:07:11;;;;;;;1.15;0.40;;;11.20;99.90;;;;;;5111403;28;20159;-72
2021/05/23 05:09:37;;;;;;;0.20;0.20;;;11.10;99.90;;;;;;5110199;28;20159;-72
2021/05/23 05:12:03;;;;;;;1.08;1.02;;;11.10;99.90;;;;;;5111260;28;20215;-72
2021/05/23 05:14:29;;;;;;;0.60;0.30;;;11.10;99.90;;;;;;5111060;28;20184;-72
2021/05/23 05:16:55;;;;;;;0.47;0.47;;;11.10;99.90;;;;;;5111102;28;20229;-72
2021/05/23 05:19:21;;;;;;;0.17;0.17;;;11.20;99.90;;;;;;5110896;28;20770;-71
2021/05/23 05:21:46;;;;;;;0.82;0.82;;;11.20;99.90;;;;;;5110927;28;20264;-71
2021/05/23 05:24:12;;;;;;;0.35;0.35;;;11.20;99.90;;;;;;5092571;28;20171;-72
2021/05/23 05:26:40;;;;;;;0.30;0.30;;;11.20;99.90;;;;;;5110634;28;20185;-71
2021/05/23 05:29:06;;;;;;;0.40;0.40;;;11.20;99.90;;;;;;5092477;28;20159;-71
2021/05/23 05:31:32;;;;;;;0.20;0.20;;;11.30;99.90;;;;;;5092524;28;20313;-71
2021/05/23 05:33:58;;;;;;;0.10;0.10;;;11.20;99.90;;;;;;5092386;28;20172;-71
2021/05/23 05:36:24;;;;;;;0.15;0.15;;;11.20;99.90;;;;;;5110068;28;20166;-71
2021/05/23 05:38:50;;;;;;;0.98;0.50;;;11.20;99.90;;;;;;5110348;28;20206;-71
2021/05/23 05:41:17;;;;;;;0.20;0.20;;;11.30;99.90;;;;;;5110135;28;20256;-71
2021/05/23 05:43:43;;;;;;;0.10;0.10;;;11.40;99.90;;;;;;5092189;28;20175;-71
2021/05/23 05:46:09;;;;;;;0.93;0.93;;;11.60;99.90;;;;;;5110222;28;20595;-71
2021/05/23 05:48:35;;;;;;;0.10;0.10;;;11.80;99.90;;;;;;5110215;28;20220;-71
2021/05/23 05:51:01;;;;;;;0.47;0.47;;;11.90;99.90;;;;;;5110166;28;20655;-70
2021/05/23 05:53:28;;;;;;;0.40;0.40;;;11.90;99.90;;;;;;5091969;28;20178;-72
2021/05/23 05:55:54;;;;;;;0.20;0.20;;;11.90;99.90;;;;;;5110377;28;20167;-71
2021/05/23 05:58:19;;;;;;;0.45;0.45;;;11.80;99.90;;;;;;5110266;28;20163;-72
2021/05/23 06:00:45;;;;;;;0.10;0.10;;;12.10;99.90;;;;;;5091778;28;20221;-72
2021/05/23 06:03:11;;;;;;;0.22;0.22;;;12.10;99.90;;;;;;5110227;28;20643;-72
2021/05/23 06:05:37;;;;;;;0.10;0.10;;;12.10;99.90;;;;;;5109975;28;20240;-71
2021/05/23 06:08:03;;;;;;;0.30;0.30;;;12.20;99.90;;;;;;5110125;28;20165;-71
2021/05/23 06:10:29;;;;;;;0.73;0.73;;;12.10;99.90;;;;;;5091606;28;20199;-71
2021/05/23 06:12:55;;;;;;;0.20;0.20;;;12.20;99.90;;;;;;5109454;28;20222;-71
2021/05/23 06:15:21;;;;;;;1.23;0.50;;;12.30;99.90;;;;;;5109774;28;20170;-71
2021/05/23 06:17:46;;;;;;;0.17;0.17;;;12.20;99.90;;;;;;5110058;28;20163;-71
2021/05/23 06:20:13;;;;;;;0.25;0.25;;;12.10;99.90;;;;;;5109599;28;20203;-71
2021/05/23 06:22:39;;;;;;;0.20;0.20;;;12.10;99.90;;;;;;5109886;28;20160;-72
2021/05/23 06:25:06;;;;;;;0.20;0.20;;;12.20;99.90;;;;;;5109872;28;20175;-72
2021/05/23 06:27:33;;;;;;;0.20;0.20;;;12.40;99.90;;;;;;5109672;28;20214;-72
2021/05/23 06:29:59;;;;;;;0.20;0.20;;;12.50;99.90;;;;;;5109656;28;20573;-71
2021/05/23 06:32:25;;;;;;;0.50;0.50;;;12.60;99.90;;;;;;5109817;28;20163;-71
2021/05/23 06:34:51;;;;;;;0.68;0.68;;;12.70;99.90;;;;;;5109592;28;20163;-72
2021/05/23 06:37:16;;;;;;;0.10;0.10;;;12.90;99.90;;;;;;5109144;28;20164;-71
2021/05/23 06:39:43;;;;;;;0.20;0.20;;;13.20;99.90;;;;;;5092084;28;20200;-71
2021/05/23 06:42:09;;;;;;;0.20;0.20;;;13.40;99.90;;;;;;5089048;28;20224;-71
2021/05/23 06:44:35;;;;;;;0.25;0.22;;;13.40;99.90;;;;;;5089391;28;20175;-72
2021/05/23 06:47:01;;;;;;;0.10;0.10;;;13.40;99.90;;;;;;5090218;28;20161;-71
2021/05/23 06:49:27;;;;;;;0.38;0.17;;;13.30;99.90;;;;;;5091051;28;20241;-70
2021/05/23 06:51:53;;;;;;;0.22;0.22;;;13.00;99.90;;;;;;5090851;28;20733;-71
2021/05/23 06:54:18;;;;;;;0.13;0.13;;;12.80;99.90;;;;;;5091023;28;20178;-71
2021/05/23 06:56:44;;;;;;;0.35;0.35;;;12.80;99.90;;;;;;5091273;28;20167;-71
2021/05/23 06:59:11;;;;;;;0.52;0.45;;;12.90;99.90;;;;;;5091066;28;20181;-71
2021/05/23 07:01:37;;;;;;;0.95;0.30;;;13.00;99.90;;;;;;5109196;28;20186;-71
2021/05/23 07:04:04;;;;;;;0.00;0.00;;;13.00;99.90;;;;;;5109005;28;20191;-71
2021/05/23 07:06:30;;;;;;;0.25;0.22;;;12.80;99.90;;;;;;5091044;28;20235;-71
2021/05/23 07:08:56;;;;;;;0.55;0.35;;;12.80;99.90;;;;;;5109183;28;20175;-71
2021/05/23 07:11:22;;;;;;;0.20;0.20;;;12.80;99.90;;;;;;5109066;28;20240;-70
2021/05/23 07:13:48;;;;;;;0.50;0.50;;;12.80;99.90;;;;;;5109216;28;20159;-70
2021/05/23 07:16:14;;;;;;;0.40;0.40;;;12.80;99.90;;;;;;5109227;28;20166;-70
2021/05/23 07:18:40;;;;;;;0.40;0.40;;;12.70;99.90;;;;;;5109238;28;20159;-70
2021/05/23 07:21:05;;;;;;;0.32;0.30;;;12.60;99.90;;;;;;5109104;28;20210;-72
2021/05/23 07:23:31;;;;;;;0.75;0.75;;;12.60;99.90;;;;;;5109247;28;20171;-71
2021/05/23 07:25:57;;;;;;;0.17;0.17;;;12.50;99.90;;;;;;5108185;28;20143;-72
2021/05/23 07:28:23;;;;;;;0.10;0.10;;;12.50;99.90;;;;;;5107715;28;20215;-69
2021/05/23 07:30:50;;;;;;;0.10;0.10;;;12.60;99.90;;;;;;5107360;28;20202;-69
2021/05/23 07:33:17;;;;;;;0.20;0.20;;;12.50;99.90;;;;;;5109167;28;20183;-69
2021/05/23 07:35:43;;;;;;;0.20;0.20;;;12.60;99.90;;;;;;5108134;28;20187;-70
2021/05/23 07:38:09;;;;;;;0.20;0.20;;;12.50;99.90;;;;;;5108777;28;20659;-72
2021/05/23 07:40:35;;;;;;;1.95;0.43;;;12.50;99.90;;;;;;5108813;28;20217;-71
2021/05/23 07:43:05;;;;;;;0.30;0.30;;;12.50;99.90;;;;;;5108701;28;20211;-72
2021/05/23 07:45:32;;;;;;;0.17;0.17;;;12.40;99.90;;;;;;5109017;28;20167;-71
2021/05/23 07:47:58;;;;;;;0.50;0.50;;;12.40;99.90;;;;;;5090402;28;20175;-71
2021/05/23 07:50:25;;;;;;;0.28;0.28;;;12.50;99.90;;;;;;5108729;28;20191;-71
2021/05/23 07:52:51;;;;;;;0.10;0.10;;;12.50;99.90;;;;;;5108713;28;20686;-72
2021/05/23 07:55:18;;;;;;;0.10;0.10;;;12.60;99.90;;;;;;5108614;28;20160;-71
2021/05/23 07:57:45;;;;;;;0.20;0.20;;;12.60;99.90;;;;;;5108584;28;20198;-71
2021/05/23 08:00:13;;;;;;;0.30;0.30;;;12.50;99.90;;;;;;5090473;28;20223;-71
2021/05/23 08:02:39;;;;;;;0.20;0.20;;;12.40;99.90;;;;;;5108762;28;20148;-71
2021/05/23 08:05:05;;;;;;;0.10;0.10;;;12.40;99.90;;;;;;5112217;28;20159;-71
2021/05/23 08:07:32;;;;;;;0.10;0.10;;;12.30;99.90;;;;;;5094187;28;20171;-72
2021/05/23 08:09:58;;;;;;;0.30;0.30;;;12.30;99.90;;;;;;5112164;28;20160;-72
2021/05/23 08:12:23;;;;;;;0.10;0.10;;;12.30;99.90;;;;;;5112281;28;20216;-72
2021/05/23 08:14:49;;;;;;;0.22;0.22;;;12.30;99.90;;;;;;5093961;28;20199;-71
2021/05/23 08:17:15;;;;;;;0.00;0.00;;;12.30;99.90;;;;;;5112302;28;20155;-71
2021/05/23 08:19:42;;;;;;;0.30;0.28;;;12.30;99.90;;;;;;5112093;28;20186;-71
2021/05/23 08:22:07;;;;;;;0.17;0.17;;;12.30;99.90;;;;;;5112052;28;20549;-71
2021/05/23 08:24:33;;;;;;;0.20;0.20;;;12.20;99.90;;;;;;5111758;28;20159;-71
2021/05/23 08:27:04;;;;;;;0.13;0.13;;;12.30;99.90;;;;;;5111973;28;20160;-71
2021/05/23 08:29:30;;;;;;;0.60;0.60;;;12.30;99.90;;;;;;5111796;28;20374;-72
2021/05/23 08:32:00;;;;;;;0.20;0.20;;;12.20;99.90;;;;;;5093673;28;20245;-71
2021/05/23 08:34:27;;;;;;;0.20;0.20;;;12.10;99.90;;;;;;5093305;28;20168;-71
2021/05/23 08:36:53;;;;;;;20.27;0.95;;;12.10;99.90;;;;;;5111447;28;20174;-72
2021/05/23 08:39:18;;;;;;;0.10;0.10;;;12.20;99.90;;;;;;5111093;28;20198;-71
2021/05/23 08:41:46;;;;;;;0.70;0.70;;;12.10;99.90;;;;;;5089985;28;20220;-72
2021/05/23 08:44:21;;;;;;;0.30;0.30;;;12.20;99.90;;;;;;5091190;28;20261;-72
2021/05/23 08:46:50;;;;;;;0.70;0.70;;;12.10;99.90;;;;;;5091337;28;20239;-72
2021/05/23 08:49:22;;;;;;;0.20;0.20;;;12.10;99.90;;;;;;5091322;28;20176;-72
2021/05/23 08:51:49;;;;;;;0.30;0.30;;;11.90;99.90;;;;;;5091177;28;20214;-72
2021/05/23 08:54:16;;;;;;;0.32;0.32;;;11.80;99.90;;;;;;5091102;28;20183;-72
2021/05/23 08:56:43;;;;;;;0.38;0.38;;;11.90;99.90;;;;;;5091194;28;20262;-72
2021/05/23 08:59:10;;;;;;;0.10;0.10;;;11.80;99.90;;;;;;5089686;28;20175;-72
2021/05/23 09:01:38;;;;;;;0.30;0.30;;;11.70;99.90;;;;;;5091202;28;20216;-72
2021/05/23 09:04:06;;;;;;;0.10;0.10;;;11.70;99.90;;;;;;5091031;28;20160;-72
2021/05/23 09:06:35;;;;;;;0.28;0.28;;;11.70;99.90;;;;;;5082044;28;20172;-72
2021/05/23 09:09:05;;;;;;;0.30;0.30;;;11.70;99.90;;;;;;5071094;28;20173;-72
2021/05/23 09:11:32;;;;;;;0.52;0.52;;;11.60;99.90;;;;;;5069321;28;20193;-72
2021/05/23 09:13:58;;;;;;;0.45;0.30;;;11.60;99.90;;;;;;5070451;28;20153;-71
2021/05/23 09:16:25;;;;;;;0.45;0.45;;;11.70;99.90;;;;;;5070562;28;20149;-71
2021/05/23 09:18:56;;;;;;;0.43;0.43;;;11.70;99.90;;;;;;5070251;28;20180;-72
2021/05/23 09:21:30;;;;;;;0.75;0.68;;;11.70;99.90;;;;;;5070591;28;20270;-72
2021/05/23 09:23:59;;;;;;;0.15;0.15;;;11.70;99.90;;;;;;5069460;28;20228;-72
2021/05/23 09:26:46;;;;;;;0.08;0.08;;;11.60;99.90;;;;;;5070356;28;20153;-71
2021/05/23 09:29:15;;;;;;;0.20;0.20;;;11.50;99.90;;;;;;5069234;28;20239;-71
2021/05/23 09:31:46;;;;;;;0.10;0.10;;;11.50;99.90;;;;;;5070229;28;20188;-71
2021/05/23 09:34:32;;;;;;;0.10;0.10;;;11.60;99.90;;;;;;5070491;28;20152;-71
2021/05/23 09:37:00;;;;;;;0.10;0.10;;;11.60;99.90;;;;;;5069180;28;20192;-71
2021/05/23 09:39:37;;;;;;;0.13;0.13;;;11.50;99.90;;;;;;5080416;28;20708;-71
2021/05/23 09:42:05;;;;;;;0.20;0.20;;;11.60;99.90;;;;;;5088604;28;20313;-71
2021/05/23 09:44:32;;;;;;;0.10;0.10;;;11.60;99.90;;;;;;5089539;28;20192;-71
2021/05/23 09:47:00;;;;;;;0.10;0.10;;;11.50;99.90;;;;;;5089958;28;20212;-70
2021/05/23 09:49:27;;;;;;;0.10;0.10;;;11.30;99.90;;;;;;5090154;28;20156;-70
2021/05/23 09:51:58;;;;;;;0.10;0.10;;;11.30;99.90;;;;;;5089797;28;20196;-71
2021/05/23 09:54:27;;;;;;;0.10;0.10;;;11.10;99.90;;;;;;5089823;28;20157;-71
2021/05/23 09:56:54;;;;;;;0.10;0.10;;;10.90;99.90;;;;;;5089192;28;20638;-71
2021/05/23 09:59:27;;;;;;;0.10;0.10;;;10.80;99.90;;;;;;5088601;28;20211;-71
2021/05/23 10:02:08;;;;;;;4.40;0.50;;;10.70;99.90;;;;;;5088543;28;20180;-71
2021/05/23 10:04:35;;;;;;;0.10;0.10;;;10.60;99.90;;;;;;5088713;28;20624;-71
2021/05/23 10:07:06;;;;;;;0.10;0.10;;;10.60;99.90;;;;;;5089483;28;20156;-71
2021/05/23 10:09:32;;;;;;;0.10;0.10;;;10.40;99.90;;;;;;5088384;28;20172;-71
2021/05/23 10:11:59;;;;;;;0.20;0.20;;;10.30;99.90;;;;;;5089572;28;20157;-71
2021/05/23 10:14:26;;;;;;;0.10;0.10;;;10.20;99.90;;;;;;5088309;28;20187;-71
2021/05/23 10:16:52;;;;;;;0.10;0.10;;;10.30;99.90;;;;;;5087607;28;20175;-71
2021/05/23 10:19:27;;;;;;;0.10;0.10;;;10.30;99.90;;;;;;5088117;28;20219;-71
2021/05/23 10:21:56;;;;;;;0.10;0.10;;;10.30;99.90;;;;;;5086358;28;20270;-71
2021/05/23 10:24:24;;;;;;;0.10;0.10;;;10.50;99.90;;;;;;5089404;28;20160;-71
2021/05/23 10:26:54;;;;;;;0.10;0.10;;;10.70;99.90;;;;;;5087466;28;20176;-71
2021/05/23 10:29:22;;;;;;;0.10;0.10;;;10.90;99.90;;;;;;5087120;28;20207;-72
2021/05/23 10:31:48;;;;;;;0.10;0.10;;;11.20;99.90;;;;;;5087254;28;20184;-71
2021/05/23 10:34:14;;;;;;;0.10;0.10;;;11.60;99.90;;;;;;5089411;28;20180;-71
2021/05/23 10:36:43;;;;;;;0.10;0.10;;;11.90;99.90;;;;;;5088410;28;20171;-71
2021/05/23 10:39:16;;;;;;;0.10;0.10;;;12.20;99.90;;;;;;5084493;28;20585;-71
2021/05/23 10:41:43;;;;;;;0.03;0.03;;;12.30;99.90;;;;;;5072984;28;20215;-72
2021/05/23 10:44:12;;;;;;;1.00;0.30;;;12.40;99.90;;;;;;5076755;28;20178;-72
2021/05/23 10:46:46;;;;;;;0.10;0.10;;;12.40;99.90;;;;;;5109569;28;20152;-72
2021/05/23 10:49:12;;;;;;;0.10;0.10;;;12.50;99.90;;;;;;5109049;28;20243;-72
2021/05/23 10:51:38;;;;;;;0.10;0.10;;;12.80;99.90;;;;;;5109272;28;20155;-72
2021/05/23 10:54:15;;;;;;;0.10;0.10;;;13.00;99.90;;;;;;5091041;28;20220;-72
2021/05/23 10:56:41;;;;;;;0.10;0.10;;;12.70;99.90;;;;;;5109100;28;20170;-72
2021/05/23 10:59:07;;;;;;;0.10;0.10;;;12.60;99.90;;;;;;5109201;28;20197;-72
2021/05/23 11:01:42;;;;;;;0.10;0.10;;;12.70;99.90;;;;;;5109213;28;20170;-72
2021/05/23 11:04:10;;;;;;;0.10;0.10;;;12.90;99.90;;;;;;5109220;28;20184;-72
2021/05/23 11:06:35;;;;;;;0.20;0.20;;;13.70;99.90;;;;;;5090838;28;20573;-72
2021/05/23 11:09:10;;;;;;;0.10;0.10;;;14.40;99.90;;;;;;5109022;28;20270;-72
2021/05/23 11:11:37;;;;;;;0.10;0.10;;;14.60;99.90;;;;;;5091174;28;20185;-73
2021/05/23 11:14:24;;;;;;;0.10;0.10;;;14.50;99.90;;;;;;5091407;28;20189;-73
2021/05/23 11:16:58;;;;;;;0.10;0.10;;;14.00;99.90;;;;;;5090694;28;20217;-72
2021/05/23 11:19:26;;;;;;;0.10;0.10;;;13.70;99.90;;;;;;5109015;28;20205;-72
2021/05/23 11:21:54;;;;;;;0.10;0.10;;;13.60;99.90;;;;;;5109034;28;20151;-72
2021/05/23 11:24:34;;;;;;;0.10;0.10;;;13.50;99.90;;;;;;5109148;28;20155;-72
2021/05/23 11:27:11;;;;;;;0.10;0.10;;;13.40;99.90;;;;;;5109061;28;20163;-72
2021/05/23 11:29:38;;;;;;;0.10;0.10;;;13.30;99.90;;;;;;5109247;28;20158;-74
2021/05/23 11:32:11;;;;;;;0.20;0.20;;;13.40;99.90;;;;;;5091031;28;20175;-74
2021/05/23 11:34:37;;;;;;;0.40;0.40;;;13.50;99.90;;;;;;5090880;28;20197;-71
2021/05/23 11:37:03;;;;;;;0.10;0.10;;;13.80;99.90;;;;;;5108364;28;20585;-72
2021/05/23 11:39:31;;;;;;;0.10;0.10;;;14.30;99.90;;;;;;5112721;28;20285;-71
2021/05/23 11:41:58;;;;;;;0.10;0.10;;;14.30;99.90;;;;;;5112486;28;20211;-71
2021/05/23 11:44:35;;;;;;;0.10;0.10;;;14.60;99.90;;;;;;5112405;28;20164;-71
2021/05/23 11:47:02;;;;;;;0.10;0.10;;;14.30;99.90;;;;;;5094545;28;20167;-71
2021/05/23 11:49:29;;;;;;;0.10;0.10;;;14.30;99.90;;;;;;5112349;28;20243;-72
2021/05/23 11:52:01;;;;;;;0.10;0.10;;;14.40;99.90;;;;;;5094291;28;20197;-72
2021/05/23 11:54:27;;;;;;;0.10;0.10;;;14.80;99.90;;;;;;5112540;28;20156;-72
2021/05/23 11:56:53;;;;;;;0.10;0.10;;;15.80;99.90;;;;;;5112370;28;20531;-72
2021/05/23 11:59:19;;;;;;;0.10;0.10;;;16.10;99.90;;;;;;5112353;28;20247;-72
2021/05/23 12:01:52;;;;;;;0.10;0.10;;;16.00;99.90;;;;;;5112625;28;20163;-74
2021/05/23 12:04:19;;;;;;;0.10;0.10;;;16.60;99.90;;;;;;5112580;28;20163;-72
2021/05/23 12:06:50;;;;;;;0.10;0.10;;;17.00;99.90;;;;;;5112170;28;20159;-72
2021/05/23 12:09:28;;;;;;;0.00;0.00;;;16.70;99.90;;;;;;5112203;28;20267;-72
2021/05/23 12:11:56;;;;;;;0.13;0.13;;;15.70;99.90;;;;;;5112198;28;20270;-72
2021/05/23 12:14:32;;;;;;;0.10;0.10;;;15.20;99.90;;;;;;5112307;28;20148;-72
2021/05/23 12:17:01;;;;;;;0.10;0.10;;;15.10;99.90;;;;;;5111861;28;20155;-72
2021/05/23 12:20:03;;;;;;;0.00;0.00;;;15.50;99.90;;;;;;5111829;28;20205;-72
2021/05/23 12:22:35;;;;;;;0.10;0.10;;;15.30;99.90;;;;;;5009941;28;20221;-72
2021/05/23 12:25:11;;;;;;;0.10;0.10;;;15.90;99.90;;;;;;5009692;28;20197;-72
2021/05/23 12:27:40;;;;;;;0.10;0.10;;;16.60;99.90;;;;;;5009544;28;20198;-72
2021/05/23 12:30:16;;;;;;;0.10;0.10;;;16.90;99.90;;;;;;5009845;28;20201;-72
2021/05/23 12:32:58;;;;;;;0.10;0.10;;;16.90;99.90;;;;;;4993416;28;20179;-72
2021/05/23 12:35:28;;;;;;;0.20;0.20;;;16.80;99.90;;;;;;5009467;28;20173;-72
2021/05/23 12:37:56;;;;;;;0.10;0.10;;;16.10;99.90;;;;;;5009535;28;20207;-72
2021/05/23 12:40:34;;;;;;;0.10;0.10;;;15.60;99.90;;;;;;5009409;28;20229;-72
2021/05/23 12:43:19;;;;;;;0.10;0.10;;;15.70;99.90;;;;;;5009414;28;20300;-72
2021/05/23 12:45:57;;;;;;;0.10;0.10;;;15.80;99.90;;;;;;5009457;28;20166;-72
2021/05/23 12:48:43;;;;;;;0.10;0.10;;;16.00;99.90;;;;;;5004896;28;20220;-72
2021/05/23 12:51:20;;;;;;;0.20;0.20;;;16.70;99.90;;;;;;5012361;28;20759;-72